sensor_id;sensor_type;location;lat;lon;timestamp;pressure;altitude;pressure_sealevel;temperature;humidity
71966;BME280;59836;52.132;5.442;2023-06-14T00:00:40;101546.50;;;19.90;47.08
71966;BME280;59836;52.132;5.442;2023-06-14T00:03:10;101553.63;;;19.91;47.95
71966;BME280;59836;52.132;5.442;2023-06-14T00:05:38;101552.31;;;19.88;47.31
71966;BME280;59836;52.132;5.442;2023-06-14T00:08:07;101548.72;;;19.88;47.36
71966;BME280;59836;52.132;5.442;2023-06-14T00:10:34;101554.88;;;19.85;46.68
71966;BME280;59836;52.132;5.442;2023-06-14T00:13:02;101555.38;;;19.87;47.26
71966;BME280;59836;52.132;5.442;2023-06-14T00:15:33;101551.63;;;19.83;47.17
71966;BME280;59836;52.132;5.442;2023-06-14T00:18:00;101545.47;;;19.86;46.72
71966;BME280;59836;52.132;5.442;2023-06-14T00:20:29;101554.88;;;19.85;47.27
71966;BME280;59836;52.132;5.442;2023-06-14T00:22:57;101550.38;;;19.89;47.12
71966;BME280;59836;52.132;5.442;2023-06-14T00:25:24;101550.38;;;19.89;47.37
71966;BME280;59836;52.132;5.442;2023-06-14T00:27:57;101553.44;;;19.87;47.24
71966;BME280;59836;52.132;5.442;2023-06-14T00:30:24;101561.19;;;19.85;47.42
71966;BME280;59836;52.132;5.442;2023-06-14T00:32:51;101553.75;;;19.86;47.75
71966;BME280;59836;52.132;5.442;2023-06-14T00:35:18;101556.50;;;19.86;47.92
71966;BME280;59836;52.132;5.442;2023-06-14T00:37:44;101553.56;;;19.82;47.27
71966;BME280;59836;52.132;5.442;2023-06-14T00:40:11;101551.75;;;19.77;47.01
71966;BME280;59836;52.132;5.442;2023-06-14T00:42:37;101555.00;;;19.80;47.66
71966;BME280;59836;52.132;5.442;2023-06-14T00:45:05;101549.81;;;19.78;47.17
71966;BME280;59836;52.132;5.442;2023-06-14T00:47:31;101553.38;;;19.79;46.87
71966;BME280;59836;52.132;5.442;2023-06-14T00:49:58;101559.22;;;19.77;46.96
71966;BME280;59836;52.132;5.442;2023-06-14T00:52:26;101554.34;;;19.74;47.20
71966;BME280;59836;52.132;5.442;2023-06-14T00:54:54;101557.38;;;19.72;47.11
71966;BME280;59836;52.132;5.442;2023-06-14T00:57:20;101559.84;;;19.74;47.81
71966;BME280;59836;52.132;5.442;2023-06-14T00:59:48;101550.25;;;19.71;47.57
71966;BME280;59836;52.132;5.442;2023-06-14T01:02:17;101547.63;;;19.66;47.66
71966;BME280;59836;52.132;5.442;2023-06-14T01:04:46;101561.53;;;19.61;47.48
71966;BME280;59836;52.132;5.442;2023-06-14T01:10:18;101560.56;;;19.57;48.29
71966;BME280;59836;52.132;5.442;2023-06-14T01:15:20;101557.44;;;19.50;47.98
71966;BME280;59836;52.132;5.442;2023-06-14T01:17:49;101550.44;;;19.43;47.91
71966;BME280;59836;52.132;5.442;2023-06-14T01:20:19;101548.31;;;19.40;48.30
71966;BME280;59836;52.132;5.442;2023-06-14T01:22:53;101546.66;;;19.39;48.64
71966;BME280;59836;52.132;5.442;2023-06-14T01:25:20;101548.41;;;19.35;49.50
71966;BME280;59836;52.132;5.442;2023-06-14T01:28:09;101553.41;;;19.33;48.79
71966;BME280;59836;52.132;5.442;2023-06-14T01:30:39;101552.91;;;19.31;48.48
71966;BME280;59836;52.132;5.442;2023-06-14T01:33:13;101546.59;;;19.30;48.75
71966;BME280;59836;52.132;5.442;2023-06-14T01:35:45;101553.03;;;19.26;48.41
71966;BME280;59836;52.132;5.442;2023-06-14T01:38:13;101555.41;;;19.18;48.51
71966;BME280;59836;52.132;5.442;2023-06-14T01:40:40;101546.78;;;19.11;49.00
71966;BME280;59836;52.132;5.442;2023-06-14T01:43:10;101554.00;;;19.07;49.48
71966;BME280;59836;52.132;5.442;2023-06-14T01:45:38;101556.25;;;19.05;49.88
71966;BME280;59836;52.132;5.442;2023-06-14T01:48:05;101557.59;;;18.94;50.22
71966;BME280;59836;52.132;5.442;2023-06-14T01:50:32;101556.06;;;18.87;50.32
71966;BME280;59836;52.132;5.442;2023-06-14T01:52:59;101558.41;;;18.80;50.54
71966;BME280;59836;52.132;5.442;2023-06-14T01:55:26;101563.00;;;18.71;51.56
71966;BME280;59836;52.132;5.442;2023-06-14T01:57:53;101558.25;;;18.63;50.97
71966;BME280;59836;52.132;5.442;2023-06-14T02:00:20;101556.72;;;18.56;51.38
71966;BME280;59836;52.132;5.442;2023-06-14T02:02:47;101554.91;;;18.52;51.51
71966;BME280;59836;52.132;5.442;2023-06-14T02:05:15;101552.47;;;18.50;51.69
71966;BME280;59836;52.132;5.442;2023-06-14T02:07:45;101555.34;;;18.45;51.84
71966;BME280;59836;52.132;5.442;2023-06-14T02:10:13;101560.41;;;18.38;51.75
71966;BME280;59836;52.132;5.442;2023-06-14T02:12:40;101555.13;;;18.27;52.30
71966;BME280;59836;52.132;5.442;2023-06-14T02:15:07;101564.06;;;18.19;52.24
71966;BME280;59836;52.132;5.442;2023-06-14T02:17:34;101560.69;;;18.08;52.88
71966;BME280;59836;52.132;5.442;2023-06-14T02:20:01;101559.38;;;18.06;53.06
71966;BME280;59836;52.132;5.442;2023-06-14T02:22:29;101548.69;;;18.04;53.55
71966;BME280;59836;52.132;5.442;2023-06-14T02:24:56;101552.88;;;18.02;53.41
71966;BME280;59836;52.132;5.442;2023-06-14T02:27:28;101560.88;;;17.98;53.65
71966;BME280;59836;52.132;5.442;2023-06-14T02:29:54;101551.91;;;17.92;53.37
71966;BME280;59836;52.132;5.442;2023-06-14T02:32:21;101558.22;;;17.93;53.05
71966;BME280;59836;52.132;5.442;2023-06-14T02:34:47;101563.19;;;17.91;53.33
71966;BME280;59836;52.132;5.442;2023-06-14T02:37:16;101563.19;;;17.91;53.30
71966;BME280;59836;52.132;5.442;2023-06-14T02:39:42;101556.69;;;17.87;53.27
71966;BME280;59836;52.132;5.442;2023-06-14T02:42:09;101557.06;;;17.80;53.86
71966;BME280;59836;52.132;5.442;2023-06-14T02:44:36;101558.84;;;17.70;54.44
71966;BME280;59836;52.132;5.442;2023-06-14T02:47:04;101568.59;;;17.63;54.58
71966;BME280;59836;52.132;5.442;2023-06-14T02:49:31;101567.34;;;17.55;54.49
71966;BME280;59836;52.132;5.442;2023-06-14T02:51:57;101569.56;;;17.53;54.59
71966;BME280;59836;52.132;5.442;2023-06-14T02:54:24;101565.81;;;17.49;54.96
71966;BME280;59836;52.132;5.442;2023-06-14T02:56:50;101567.53;;;17.45;55.17
71966;BME280;59836;52.132;5.442;2023-06-14T02:59:17;101567.91;;;17.38;54.55
71966;BME280;59836;52.132;5.442;2023-06-14T03:01:43;101573.19;;;17.34;55.03
71966;BME280;59836;52.132;5.442;2023-06-14T03:04:10;101586.06;;;17.34;54.75
71966;BME280;59836;52.132;5.442;2023-06-14T03:06:36;101578.72;;;17.29;55.42
71966;BME280;59836;52.132;5.442;2023-06-14T03:09:03;101578.56;;;17.20;55.51
71966;BME280;59836;52.132;5.442;2023-06-14T03:11:35;101600.88;;;17.14;55.96
71966;BME280;59836;52.132;5.442;2023-06-14T03:14:02;101590.50;;;17.10;56.17
71966;BME280;59836;52.132;5.442;2023-06-14T03:16:30;101589.47;;;17.06;56.56
71966;BME280;59836;52.132;5.442;2023-06-14T03:18:58;101594.19;;;17.01;57.09
71966;BME280;59836;52.132;5.442;2023-06-14T03:21:24;101605.22;;;16.95;57.19
71966;BME280;59836;52.132;5.442;2023-06-14T03:23:52;101602.31;;;16.87;57.12
71966;BME280;59836;52.132;5.442;2023-06-14T03:26:19;101596.38;;;16.79;57.56
71966;BME280;59836;52.132;5.442;2023-06-14T03:28:46;101599.16;;;16.74;57.37
71966;BME280;59836;52.132;5.442;2023-06-14T03:31:13;101606.66;;;16.68;57.74
71966;BME280;59836;52.132;5.442;2023-06-14T03:33:40;101606.91;;;16.67;57.54
71966;BME280;59836;52.132;5.442;2023-06-14T03:36:06;101603.38;;;16.66;57.62
71966;BME280;59836;52.132;5.442;2023-06-14T03:38:33;101609.06;;;16.70;57.31
71966;BME280;59836;52.132;5.442;2023-06-14T03:41:00;101604.13;;;16.72;57.10
71966;BME280;59836;52.132;5.442;2023-06-14T03:43:27;101604.66;;;16.74;56.91
71966;BME280;59836;52.132;5.442;2023-06-14T03:45:53;101606.88;;;16.72;57.44
71966;BME280;59836;52.132;5.442;2023-06-14T03:48:20;101611.22;;;16.73;57.08
71966;BME280;59836;52.132;5.442;2023-06-14T03:50:46;101605.75;;;16.73;57.07
71966;BME280;59836;52.132;5.442;2023-06-14T03:53:13;101611.22;;;16.73;56.59
71966;BME280;59836;52.132;5.442;2023-06-14T03:55:40;101616.66;;;16.78;56.47
71966;BME280;59836;52.132;5.442;2023-06-14T03:58:10;101624.59;;;16.80;57.27
71966;BME280;59836;52.132;5.442;2023-06-14T04:00:37;101623.75;;;16.79;57.09
71966;BME280;59836;52.132;5.442;2023-06-14T04:03:03;101626.50;;;16.79;57.24
71966;BME280;59836;52.132;5.442;2023-06-14T04:05:32;101624.28;;;16.81;57.28
71966;BME280;59836;52.132;5.442;2023-06-14T04:07:58;101630.88;;;16.80;56.99
71966;BME280;59836;52.132;5.442;2023-06-14T04:10:25;101634.78;;;16.74;57.13
71966;BME280;59836;52.132;5.442;2023-06-14T04:12:51;101630.41;;;16.73;57.87
71966;BME280;59836;52.132;5.442;2023-06-14T04:15:18;101637.25;;;16.76;58.01
71966;BME280;59836;52.132;5.442;2023-06-14T04:17:47;101638.56;;;16.78;57.87
71966;BME280;59836;52.132;5.442;2023-06-14T04:20:14;101641.03;;;16.80;57.88
71966;BME280;59836;52.132;5.442;2023-06-14T04:22:40;101641.25;;;16.83;57.26
71966;BME280;59836;52.132;5.442;2023-06-14T04:25:07;101642.88;;;16.85;57.70
71966;BME280;59836;52.132;5.442;2023-06-14T04:27:34;101643.19;;;16.83;57.65
71966;BME280;59836;52.132;5.442;2023-06-14T04:30:03;101651.34;;;16.88;58.37
71966;BME280;59836;52.132;5.442;2023-06-14T04:32:29;101646.13;;;16.87;58.23
71966;BME280;59836;52.132;5.442;2023-06-14T04:35:00;101641.72;;;16.91;57.86
71966;BME280;59836;52.132;5.442;2023-06-14T04:37:28;101655.34;;;16.96;56.94
71966;BME280;59836;52.132;5.442;2023-06-14T04:39:56;101648.47;;;16.99;57.66
71966;BME280;59836;52.132;5.442;2023-06-14T04:42:24;101644.81;;;17.08;57.25
71966;BME280;59836;52.132;5.442;2023-06-14T04:44:57;101650.22;;;17.14;56.81
71966;BME280;59836;52.132;5.442;2023-06-14T04:47:23;101648.00;;;17.16;56.70
71966;BME280;59836;52.132;5.442;2023-06-14T04:49:59;101650.69;;;17.21;56.12
71966;BME280;59836;52.132;5.442;2023-06-14T04:52:27;101664.31;;;17.26;55.36
71966;BME280;59836;52.132;5.442;2023-06-14T04:54:53;101662.09;;;17.28;55.50
71966;BME280;59836;52.132;5.442;2023-06-14T04:57:21;101662.31;;;17.32;55.54
71966;BME280;59836;52.132;5.442;2023-06-14T04:59:48;101662.81;;;17.34;55.68
71966;BME280;59836;52.132;5.442;2023-06-14T05:02:22;101662.53;;;17.35;56.44
71966;BME280;59836;52.132;5.442;2023-06-14T05:04:50;101663.59;;;17.39;55.94
71966;BME280;59836;52.132;5.442;2023-06-14T05:07:16;101669.06;;;17.39;56.57
71966;BME280;59836;52.132;5.442;2023-06-14T05:09:44;101669.00;;;17.45;57.41
71966;BME280;59836;52.132;5.442;2023-06-14T05:12:11;101664.56;;;17.49;56.62
71966;BME280;59836;52.132;5.442;2023-06-14T05:14:37;101672.16;;;17.52;56.24
71966;BME280;59836;52.132;5.442;2023-06-14T05:17:04;101668.81;;;17.55;55.73
71966;BME280;59836;52.132;5.442;2023-06-14T05:19:31;101657.25;;;17.58;56.14
71966;BME280;59836;52.132;5.442;2023-06-14T05:21:57;101667.88;;;17.65;55.60
71966;BME280;59836;52.132;5.442;2023-06-14T05:24:24;101673.56;;;17.68;55.61
71966;BME280;59836;52.132;5.442;2023-06-14T05:26:50;101668.31;;;17.72;56.50
71966;BME280;59836;52.132;5.442;2023-06-14T05:29:17;101675.13;;;17.75;56.51
71966;BME280;59836;52.132;5.442;2023-06-14T05:31:43;101661.91;;;17.77;55.68
71966;BME280;59836;52.132;5.442;2023-06-14T05:34:11;101665.78;;;17.76;55.63
71966;BME280;59836;52.132;5.442;2023-06-14T05:36:37;101671.09;;;17.86;56.17
71966;BME280;59836;52.132;5.442;2023-06-14T05:39:04;101680.88;;;17.92;56.17
71966;BME280;59836;52.132;5.442;2023-06-14T05:41:32;101681.91;;;17.96;56.23
71966;BME280;59836;52.132;5.442;2023-06-14T05:43:58;101683.53;;;17.97;55.08
71966;BME280;59836;52.132;5.442;2023-06-14T05:46:26;101681.56;;;18.03;55.32
71966;BME280;59836;52.132;5.442;2023-06-14T05:48:53;101681.97;;;18.10;54.55
71966;BME280;59836;52.132;5.442;2023-06-14T05:51:20;101682.13;;;18.19;55.69
71966;BME280;59836;52.132;5.442;2023-06-14T05:53:47;101688.84;;;18.27;55.27
71966;BME280;59836;52.132;5.442;2023-06-14T05:56:15;101687.97;;;18.32;54.77
71966;BME280;59836;52.132;5.442;2023-06-14T05:58:44;101692.25;;;18.38;54.21
71966;BME280;59836;52.132;5.442;2023-06-14T06:01:11;101693.78;;;18.44;55.08
71966;BME280;59836;52.132;5.442;2023-06-14T06:03:38;101693.47;;;18.46;53.29
71966;BME280;59836;52.132;5.442;2023-06-14T06:06:04;101698.59;;;18.52;53.95
71966;BME280;59836;52.132;5.442;2023-06-14T06:08:31;101705.06;;;18.56;55.22
71966;BME280;59836;52.132;5.442;2023-06-14T06:10:58;101706.09;;;18.61;53.48
71966;BME280;59836;52.132;5.442;2023-06-14T06:13:26;101703.84;;;18.63;52.00
71966;BME280;59836;52.132;5.442;2023-06-14T06:15:52;101704.09;;;18.66;52.36
71966;BME280;59836;52.132;5.442;2023-06-14T06:18:19;101708.97;;;18.69;51.99
71966;BME280;59836;52.132;5.442;2023-06-14T06:20:45;101707.75;;;18.76;51.77
71966;BME280;59836;52.132;5.442;2023-06-14T06:23:13;101704.91;;;18.81;51.67
71966;BME280;59836;52.132;5.442;2023-06-14T06:25:39;101709.19;;;18.87;51.75
71966;BME280;59836;52.132;5.442;2023-06-14T06:28:06;101704.38;;;18.93;52.31
71966;BME280;59836;52.132;5.442;2023-06-14T06:30:33;101705.16;;;18.98;51.98
71966;BME280;59836;52.132;5.442;2023-06-14T06:32:59;101708.59;;;19.04;52.52
71966;BME280;59836;52.132;5.442;2023-06-14T06:35:26;101706.06;;;19.08;51.74
71966;BME280;59836;52.132;5.442;2023-06-14T06:37:52;101712.88;;;19.10;51.94
71966;BME280;59836;52.132;5.442;2023-06-14T06:40:19;101709.19;;;19.15;51.65
71966;BME280;59836;52.132;5.442;2023-06-14T06:42:45;101718.16;;;19.21;51.42
71966;BME280;59836;52.132;5.442;2023-06-14T06:45:12;101714.47;;;19.25;52.04
71966;BME280;59836;52.132;5.442;2023-06-14T06:47:39;101716.81;;;19.32;51.93
71966;BME280;59836;52.132;5.442;2023-06-14T06:50:06;101720.59;;;19.36;51.79
71966;BME280;59836;52.132;5.442;2023-06-14T06:52:33;101731.16;;;19.43;50.99
71966;BME280;59836;52.132;5.442;2023-06-14T06:55:00;101734.31;;;19.50;51.30
71966;BME280;59836;52.132;5.442;2023-06-14T06:57:26;101725.13;;;19.55;50.34
71966;BME280;59836;52.132;5.442;2023-06-14T06:59:55;101733.75;;;19.62;50.30
71966;BME280;59836;52.132;5.442;2023-06-14T07:02:21;101739.66;;;19.69;50.27
71966;BME280;59836;52.132;5.442;2023-06-14T07:04:48;101737.28;;;19.76;50.90
71966;BME280;59836;52.132;5.442;2023-06-14T07:07:15;101733.28;;;19.83;50.62
71966;BME280;59836;52.132;5.442;2023-06-14T07:09:41;101735.66;;;19.89;50.05
71966;BME280;59836;52.132;5.442;2023-06-14T07:12:08;101737.97;;;19.96;50.41
71966;BME280;59836;52.132;5.442;2023-06-14T07:14:35;101735.94;;;20.02;51.52
71966;BME280;59836;52.132;5.442;2023-06-14T07:17:01;101737.72;;;20.06;51.14
71966;BME280;59836;52.132;5.442;2023-06-14T07:19:28;101743.63;;;20.14;50.96
71966;BME280;59836;52.132;5.442;2023-06-14T07:21:54;101738.47;;;20.21;51.42
71966;BME280;59836;52.132;5.442;2023-06-14T07:24:21;101740.47;;;20.29;49.52
71966;BME280;59836;52.132;5.442;2023-06-14T07:26:48;101741.97;;;20.35;49.47
71966;BME280;59836;52.132;5.442;2023-06-14T07:29:15;101746.72;;;20.44;47.45
71966;BME280;59836;52.132;5.442;2023-06-14T07:31:42;101752.59;;;20.51;47.99
71966;BME280;59836;52.132;5.442;2023-06-14T07:34:09;101744.22;;;20.56;47.18
71966;BME280;59836;52.132;5.442;2023-06-14T07:36:35;101746.84;;;20.61;47.81
71966;BME280;59836;52.132;5.442;2023-06-14T07:39:03;101755.44;;;20.69;49.20
71966;BME280;59836;52.132;5.442;2023-06-14T07:41:32;101746.53;;;20.72;46.24
71966;BME280;59836;52.132;5.442;2023-06-14T07:43:59;101748.53;;;20.80;48.04
71966;BME280;59836;52.132;5.442;2023-06-14T07:46:25;101757.50;;;20.86;47.70
71966;BME280;59836;52.132;5.442;2023-06-14T07:48:52;101757.66;;;20.89;47.08
71966;BME280;59836;52.132;5.442;2023-06-14T07:51:18;101755.59;;;20.95;46.48
71966;BME280;59836;52.132;5.442;2023-06-14T07:53:45;101760.66;;;21.02;46.14
71966;BME280;59836;52.132;5.442;2023-06-14T07:56:12;101756.63;;;21.08;47.24
71966;BME280;59836;52.132;5.442;2023-06-14T07:58:39;101767.50;;;21.13;46.48
71966;BME280;59836;52.132;5.442;2023-06-14T08:01:05;101770.13;;;21.18;45.31
71966;BME280;59836;52.132;5.442;2023-06-14T08:03:34;101764.94;;;21.26;45.93
71966;BME280;59836;52.132;5.442;2023-06-14T08:06:01;101769.19;;;21.32;44.23
71966;BME280;59836;52.132;5.442;2023-06-14T08:08:27;101770.16;;;21.36;44.50
71966;BME280;59836;52.132;5.442;2023-06-14T08:10:54;101771.16;;;21.40;44.66
71966;BME280;59836;52.132;5.442;2023-06-14T08:13:21;101769.88;;;21.46;45.49
71966;BME280;59836;52.132;5.442;2023-06-14T08:15:47;101774.09;;;21.52;45.78
71966;BME280;59836;52.132;5.442;2023-06-14T08:18:14;101775.09;;;21.57;45.41
71966;BME280;59836;52.132;5.442;2023-06-14T08:20:41;101765.53;;;21.63;42.92
71966;BME280;59836;52.132;5.442;2023-06-14T08:23:08;101765.38;;;21.68;43.02
71966;BME280;59836;52.132;5.442;2023-06-14T08:25:35;101766.38;;;21.72;43.84
71966;BME280;59836;52.132;5.442;2023-06-14T08:28:01;101766.66;;;21.79;43.46
71966;BME280;59836;52.132;5.442;2023-06-14T08:30:28;101770.09;;;21.85;43.28
71966;BME280;59836;52.132;5.442;2023-06-14T08:32:54;101771.72;;;21.95;41.45
71966;BME280;59836;52.132;5.442;2023-06-14T08:35:40;101765.53;;;21.98;41.12
71966;BME280;59836;52.132;5.442;2023-06-14T08:38:07;101769.28;;;22.02;41.21
71966;BME280;59836;52.132;5.442;2023-06-14T08:40:36;101768.63;;;22.05;41.13
71966;BME280;59836;52.132;5.442;2023-06-14T08:43:03;101773.50;;;22.08;41.15
71966;BME280;59836;52.132;5.442;2023-06-14T08:45:30;101765.88;;;22.14;40.56
71966;BME280;59836;52.132;5.442;2023-06-14T08:47:58;101773.16;;;22.19;40.75
71966;BME280;59836;52.132;5.442;2023-06-14T08:50:27;101773.34;;;22.22;39.68
71966;BME280;59836;52.132;5.442;2023-06-14T08:52:58;101774.28;;;22.26;39.45
71966;BME280;59836;52.132;5.442;2023-06-14T08:55:31;101772.50;;;22.31;39.96
71966;BME280;59836;52.132;5.442;2023-06-14T08:58:03;101762.09;;;22.36;40.08
71966;BME280;59836;52.132;5.442;2023-06-14T09:00:31;101761.44;;;22.39;40.47
71966;BME280;59836;52.132;5.442;2023-06-14T09:02:59;101768.75;;;22.44;39.91
71966;BME280;59836;52.132;5.442;2023-06-14T09:05:27;101763.41;;;22.48;39.53
71966;BME280;59836;52.132;5.442;2023-06-14T09:07:54;101768.41;;;22.54;38.78
71966;BME280;59836;52.132;5.442;2023-06-14T09:10:21;101760.78;;;22.60;38.60
71966;BME280;59836;52.132;5.442;2023-06-14T09:12:48;101761.72;;;22.64;40.20
71966;BME280;59836;52.132;5.442;2023-06-14T09:15:15;101760.25;;;22.67;39.65
71966;BME280;59836;52.132;5.442;2023-06-14T09:17:42;101774.56;;;22.69;39.48
71966;BME280;59836;52.132;5.442;2023-06-14T09:20:09;101776.66;;;22.72;40.99
71966;BME280;59836;52.132;5.442;2023-06-14T09:22:37;101766.91;;;22.75;40.35
71966;BME280;59836;52.132;5.442;2023-06-14T09:25:05;101763.94;;;22.80;40.50
71966;BME280;59836;52.132;5.442;2023-06-14T09:27:32;101764.91;;;22.84;39.83
71966;BME280;59836;52.132;5.442;2023-06-14T09:30:03;101765.84;;;22.88;38.47
71966;BME280;59836;52.132;5.442;2023-06-14T09:32:30;101770.88;;;22.95;36.94
71966;BME280;59836;52.132;5.442;2023-06-14T09:34:57;101779.50;;;22.93;37.00
71966;BME280;59836;52.132;5.442;2023-06-14T09:37:29;101780.34;;;22.94;36.94
71966;BME280;59836;52.132;5.442;2023-06-14T09:39:56;101778.84;;;22.96;36.66
71966;BME280;59836;52.132;5.442;2023-06-14T09:42:23;101771.50;;;23.00;37.01
71966;BME280;59836;52.132;5.442;2023-06-14T09:44:53;101771.00;;;23.07;38.05
71966;BME280;59836;52.132;5.442;2023-06-14T09:47:20;101766.91;;;23.13;38.59
71966;BME280;59836;52.132;5.442;2023-06-14T09:49:48;101764.75;;;23.19;37.58
71966;BME280;59836;52.132;5.442;2023-06-14T09:52:17;101762.44;;;23.21;38.02
71966;BME280;59836;52.132;5.442;2023-06-14T09:54:45;101760.19;;;23.23;39.12
71966;BME280;59836;52.132;5.442;2023-06-14T09:57:22;101766.38;;;23.29;38.95
71966;BME280;59836;52.132;5.442;2023-06-14T09:59:53;101762.56;;;23.34;38.28
71966;BME280;59836;52.132;5.442;2023-06-14T10:02:26;101755.22;;;23.38;37.82
71966;BME280;59836;52.132;5.442;2023-06-14T10:05:06;101764.69;;;23.37;36.85
71966;BME280;59836;52.132;5.442;2023-06-14T10:07:40;101749.69;;;23.38;36.28
71966;BME280;59836;52.132;5.442;2023-06-14T10:10:07;101755.34;;;23.41;36.84
71966;BME280;59836;52.132;5.442;2023-06-14T10:12:34;101757.13;;;23.46;37.05
71966;BME280;59836;52.132;5.442;2023-06-14T10:15:01;101768.00;;;23.51;35.37
71966;BME280;59836;52.132;5.442;2023-06-14T10:17:51;101758.41;;;23.49;36.17
71966;BME280;59836;52.132;5.442;2023-06-14T10:22:58;101762.94;;;23.53;36.25
71966;BME280;59836;52.132;5.442;2023-06-14T10:25:29;101764.56;;;23.54;36.26
71966;BME280;59836;52.132;5.442;2023-06-14T10:28:22;101763.88;;;23.57;36.48
71966;BME280;59836;52.132;5.442;2023-06-14T10:31:10;101754.56;;;23.62;36.48
71966;BME280;59836;52.132;5.442;2023-06-14T10:33:49;101758.63;;;23.65;36.87
71966;BME280;59836;52.132;5.442;2023-06-14T10:39:05;101747.34;;;23.70;36.12
71966;BME280;59836;52.132;5.442;2023-06-14T10:41:35;101743.09;;;23.72;36.02
71966;BME280;59836;52.132;5.442;2023-06-14T10:47:01;101753.63;;;23.79;35.86
71966;BME280;59836;52.132;5.442;2023-06-14T10:49:39;101752.81;;;23.79;35.85
71966;BME280;59836;52.132;5.442;2023-06-14T10:52:12;101745.78;;;23.81;35.15
71966;BME280;59836;52.132;5.442;2023-06-14T10:57:33;101752.97;;;23.82;36.42
71966;BME280;59836;52.132;5.442;2023-06-14T11:00:20;101755.84;;;23.86;36.04
71966;BME280;59836;52.132;5.442;2023-06-14T11:11:06;101742.72;;;23.95;36.17
71966;BME280;59836;52.132;5.442;2023-06-14T11:13:32;101738.47;;;23.98;36.82
71966;BME280;59836;52.132;5.442;2023-06-14T11:15:59;101744.97;;;24.02;36.49
71966;BME280;59836;52.132;5.442;2023-06-14T11:18:26;101747.28;;;24.00;35.37
71966;BME280;59836;52.132;5.442;2023-06-14T11:20:54;101737.34;;;23.99;36.40
71966;BME280;59836;52.132;5.442;2023-06-14T11:23:21;101754.22;;;24.06;37.13
71966;BME280;59836;52.132;5.442;2023-06-14T11:25:52;101749.50;;;24.07;36.39
71966;BME280;59836;52.132;5.442;2023-06-14T11:28:18;101748.00;;;24.09;34.96
71966;BME280;59836;52.132;5.442;2023-06-14T11:31:03;101742.25;;;24.14;35.04
71966;BME280;59836;52.132;5.442;2023-06-14T11:33:29;101746.16;;;24.13;35.80
71966;BME280;59836;52.132;5.442;2023-06-14T11:35:56;101737.53;;;24.15;35.54
71966;BME280;59836;52.132;5.442;2023-06-14T11:38:23;101735.22;;;24.17;35.32
71966;BME280;59836;52.132;5.442;2023-06-14T11:40:49;101728.19;;;24.20;36.42
71966;BME280;59836;52.132;5.442;2023-06-14T11:43:16;101730.63;;;24.21;36.34
71966;BME280;59836;52.132;5.442;2023-06-14T11:45:43;101719.06;;;24.19;34.40
71966;BME280;59836;52.132;5.442;2023-06-14T11:48:22;101717.09;;;24.20;34.45
71966;BME280;59836;52.132;5.442;2023-06-14T11:50:49;101724.25;;;24.21;35.62
71966;BME280;59836;52.132;5.442;2023-06-14T11:53:16;101729.94;;;24.24;35.58
71966;BME280;59836;52.132;5.442;2023-06-14T11:55:43;101739.53;;;24.27;35.08
71966;BME280;59836;52.132;5.442;2023-06-14T11:58:11;101748.97;;;24.26;34.59
71966;BME280;59836;52.132;5.442;2023-06-14T12:00:38;101734.66;;;24.24;34.78
71966;BME280;59836;52.132;5.442;2023-06-14T12:03:06;101730.72;;;24.25;34.79
71966;BME280;59836;52.132;5.442;2023-06-14T12:05:33;101741.81;;;24.25;35.64
71966;BME280;59836;52.132;5.442;2023-06-14T12:08:02;101728.44;;;24.27;34.81
71966;BME280;59836;52.132;5.442;2023-06-14T12:10:29;101727.97;;;24.25;35.20
71966;BME280;59836;52.132;5.442;2023-06-14T12:12:57;101734.66;;;24.24;34.83
71966;BME280;59836;52.132;5.442;2023-06-14T12:15:28;101737.91;;;24.26;34.75
71966;BME280;59836;52.132;5.442;2023-06-14T12:17:55;101736.28;;;24.25;35.08
71966;BME280;59836;52.132;5.442;2023-06-14T12:20:22;101720.78;;;24.24;35.36
71966;BME280;59836;52.132;5.442;2023-06-14T12:22:55;101722.88;;;24.27;36.05
71966;BME280;59836;52.132;5.442;2023-06-14T12:25:36;101729.84;;;24.33;35.63
71966;BME280;59836;52.132;5.442;2023-06-14T12:28:09;101737.94;;;24.38;35.79
71966;BME280;59836;52.132;5.442;2023-06-14T12:30:37;101735.94;;;24.39;36.58
71966;BME280;59836;52.132;5.442;2023-06-14T12:33:04;101738.72;;;24.39;36.29
71966;BME280;59836;52.132;5.442;2023-06-14T12:35:32;101729.03;;;24.45;36.08
71966;BME280;59836;52.132;5.442;2023-06-14T12:38:01;101729.88;;;24.45;34.48
71966;BME280;59836;52.132;5.442;2023-06-14T12:40:27;101732.16;;;24.43;34.74
71966;BME280;59836;52.132;5.442;2023-06-14T12:42:54;101722.09;;;24.39;35.21
71966;BME280;59836;52.132;5.442;2023-06-14T12:45:20;101734.38;;;24.38;35.37
71966;BME280;59836;52.132;5.442;2023-06-14T12:47:47;101728.94;;;24.41;34.98
71966;BME280;59836;52.132;5.442;2023-06-14T12:50:14;101718.78;;;24.45;34.82
71966;BME280;59836;52.132;5.442;2023-06-14T12:52:43;101726.72;;;24.47;34.21
71966;BME280;59836;52.132;5.442;2023-06-14T12:55:10;101725.25;;;24.50;35.27
71966;BME280;59836;52.132;5.442;2023-06-14T12:57:36;101730.56;;;24.55;34.79
71966;BME280;59836;52.132;5.442;2023-06-14T13:00:04;101734.97;;;24.56;34.04
71966;BME280;59836;52.132;5.442;2023-06-14T13:02:32;101738.19;;;24.58;33.55
71966;BME280;59836;52.132;5.442;2023-06-14T13:04:59;101738.19;;;24.58;33.33
71966;BME280;59836;52.132;5.442;2023-06-14T13:07:26;101744.91;;;24.57;33.33
71966;BME280;59836;52.132;5.442;2023-06-14T13:09:53;101745.13;;;24.52;33.56
71966;BME280;59836;52.132;5.442;2023-06-14T13:12:19;101738.75;;;24.51;33.79
71966;BME280;59836;52.132;5.442;2023-06-14T13:14:46;101737.13;;;24.50;34.39
71966;BME280;59836;52.132;5.442;2023-06-14T13:17:12;101738.66;;;24.47;34.69
71966;BME280;59836;52.132;5.442;2023-06-14T13:19:39;101741.41;;;24.47;35.45